createdAt,value
2023-04-26T00:00:49.390Z,72
2023-04-26T00:01:56.441Z,73
2023-04-26T00:03:03.593Z,73
2023-04-26T00:04:10.583Z,73
2023-04-26T00:05:17.541Z,73
2023-04-26T00:06:24.342Z,73
2023-04-26T00:07:31.446Z,73
2023-04-26T00:08:38.552Z,73
2023-04-26T00:09:45.148Z,73
2023-04-26T00:10:52.378Z,73
2023-04-26T00:11:59.399Z,73
2023-04-26T00:13:06.436Z,73
2023-04-26T00:15:20.154Z,73
2023-04-26T00:16:27.508Z,73
2023-04-26T00:17:34.379Z,73
2023-04-26T00:18:41.442Z,73
2023-04-26T00:19:48.053Z,73
2023-04-26T00:20:55.176Z,73
2023-04-26T00:22:02.275Z,73
2023-04-26T00:24:16.444Z,73
2023-04-26T00:25:23.044Z,73
2023-04-26T00:26:30.187Z,73
2023-04-26T00:27:37.352Z,73
2023-04-26T00:28:44.340Z,73
2023-04-26T00:29:51.478Z,73
2023-04-26T00:30:58.177Z,73
2023-04-26T00:32:05.939Z,73
2023-04-26T00:33:12.807Z,73
2023-04-26T00:34:19.397Z,73
2023-04-26T00:35:26.503Z,73
2023-04-26T00:36:33.061Z,73
2023-04-26T00:37:40.165Z,73
2023-04-26T00:38:47.305Z,73
2023-04-26T00:39:54.398Z,73
2023-04-26T00:41:01.457Z,73
2023-04-26T00:42:08.086Z,73
2023-04-26T00:43:15.139Z,73
2023-04-26T00:44:22.317Z,73
2023-04-26T00:45:29.428Z,73
2023-04-26T00:46:36.502Z,73
2023-04-26T00:47:43.196Z,73
2023-04-26T00:48:50.559Z,73
2023-04-26T00:49:57.281Z,73
2023-04-26T00:51:04.376Z,73
2023-04-26T00:52:11.515Z,73
2023-04-26T00:53:18.214Z,73
2023-04-26T00:54:25.161Z,73
2023-04-26T00:55:32.364Z,73
2023-04-26T00:56:39.395Z,73
2023-04-26T00:57:46.539Z,73
2023-04-26T00:58:53.512Z,73
2023-04-26T01:00:00.283Z,73
2023-04-26T01:01:07.292Z,73
2023-04-26T01:02:14.479Z,73
2023-04-26T01:03:21.850Z,73
2023-04-26T01:04:28.096Z,73
2023-04-26T01:05:35.226Z,73
2023-04-26T01:06:42.304Z,73
2023-04-26T01:07:49.393Z,73
2023-04-26T01:08:56.517Z,73
2023-04-26T01:10:03.108Z,73
2023-04-26T01:11:10.217Z,73
2023-04-26T01:12:17.379Z,73
2023-04-26T01:13:24.471Z,73
2023-04-26T01:14:31.519Z,73
2023-04-26T01:15:38.160Z,73
2023-04-26T01:16:45.260Z,73
2023-04-26T01:17:52.428Z,73
2023-04-26T01:18:59.548Z,73
2023-04-26T01:20:06.543Z,73
2023-04-26T01:21:13.108Z,73
2023-04-26T01:22:20.251Z,73
2023-04-26T01:23:27.431Z,73
2023-04-26T01:24:34.374Z,73
2023-04-26T01:25:41.494Z,73
2023-04-26T01:26:48.155Z,73
2023-04-26T01:27:55.221Z,73
2023-04-26T01:29:02.360Z,73
2023-04-26T01:30:09.418Z,73
2023-04-26T01:31:16.583Z,73
2023-04-26T01:32:23.102Z,73
2023-04-26T01:33:30.336Z,74
2023-04-26T01:34:37.328Z,73
2023-04-26T01:35:44.414Z,74
2023-04-26T01:36:51.548Z,73
2023-04-26T01:37:58.148Z,74
2023-04-26T01:39:05.338Z,74
2023-04-26T01:40:12.384Z,74
2023-04-26T01:41:19.453Z,74
2023-04-26T01:42:26.571Z,74
2023-04-26T01:43:33.148Z,74
2023-04-26T01:44:40.270Z,74
2023-04-26T01:45:47.372Z,74
2023-04-26T01:46:54.458Z,74
2023-04-26T01:48:01.657Z,74
2023-04-26T01:49:08.206Z,74
2023-04-26T01:50:15.243Z,74
2023-04-26T01:52:29.504Z,74
2023-04-26T01:53:36.651Z,74
2023-04-26T01:54:43.208Z,74
2023-04-26T01:55:50.313Z,74
2023-04-26T01:56:57.369Z,74
2023-04-26T01:58:04.496Z,74
2023-04-26T01:59:11.614Z,74
2023-04-26T02:00:18.183Z,74
2023-04-26T02:01:25.297Z,74
2023-04-26T02:02:32.449Z,74
2023-04-26T02:03:39.760Z,74
2023-04-26T02:04:46.130Z,74
2023-04-26T02:05:53.175Z,74
2023-04-26T02:07:00.270Z,74
2023-04-26T02:08:07.381Z,74
2023-04-26T02:09:14.524Z,74
2023-04-26T02:10:21.618Z,74
2023-04-26T02:11:28.220Z,74
2023-04-26T02:12:35.311Z,74
2023-04-26T02:13:42.451Z,74
2023-04-26T02:14:49.538Z,74
2023-04-26T02:15:56.671Z,74
2023-04-26T02:17:03.184Z,74
2023-04-26T02:18:10.325Z,74
2023-04-26T02:19:17.480Z,74
2023-04-26T02:20:24.491Z,74
2023-04-26T02:21:31.056Z,74
2023-04-26T02:22:38.227Z,74
2023-04-26T02:23:45.311Z,74
2023-04-26T02:24:52.398Z,74
2023-04-26T02:25:59.498Z,74
2023-04-26T02:27:06.107Z,74
2023-04-26T02:28:13.168Z,74
2023-04-26T02:29:29.483Z,74
2023-04-26T02:30:27.402Z,74
2023-04-26T02:31:34.588Z,74
2023-04-26T02:32:41.629Z,74
2023-04-26T02:33:48.302Z,74
2023-04-26T02:34:55.308Z,74
2023-04-26T02:36:02.397Z,74
2023-04-26T02:37:09.565Z,74
2023-04-26T02:38:16.154Z,74
2023-04-26T02:39:23.297Z,74
2023-04-26T02:41:37.490Z,74
2023-04-26T02:42:44.537Z,74
2023-04-26T02:43:51.190Z,74
2023-04-26T02:44:58.211Z,74
2023-04-26T02:46:05.381Z,74
2023-04-26T02:47:12.447Z,74
2023-04-26T02:48:19.538Z,74
2023-04-26T02:49:26.181Z,74
2023-04-26T02:50:33.197Z,74
2023-04-26T02:51:40.338Z,74
2023-04-26T02:52:47.469Z,74
2023-04-26T02:53:54.657Z,74
2023-04-26T02:55:01.130Z,74
2023-04-26T02:56:08.233Z,74
2023-04-26T02:57:15.329Z,74
2023-04-26T02:58:22.453Z,74
2023-04-26T02:59:29.621Z,74
2023-04-26T03:00:36.172Z,74
2023-04-26T03:01:43.286Z,74
2023-04-26T03:02:50.453Z,74
2023-04-26T03:03:57.645Z,74
2023-04-26T03:05:04.512Z,74
2023-04-26T03:06:11.177Z,74
2023-04-26T03:07:18.304Z,74
2023-04-26T03:08:25.399Z,74
2023-04-26T03:09:32.581Z,74
2023-04-26T03:10:39.603Z,74
2023-04-26T03:11:47.728Z,74
2023-04-26T03:12:53.255Z,74
2023-04-26T03:14:00.388Z,74
2023-04-26T03:15:07.546Z,74
2023-04-26T03:16:14.611Z,74
2023-04-26T03:17:21.161Z,75
2023-04-26T03:18:28.358Z,75
2023-04-26T03:20:42.499Z,75
2023-04-26T03:21:49.638Z,74
2023-04-26T03:22:56.240Z,74
2023-04-26T03:24:03.380Z,74
2023-04-26T03:25:10.418Z,75
2023-04-26T03:26:17.544Z,74
2023-04-26T03:27:24.646Z,75
2023-04-26T03:28:31.241Z,75
2023-04-26T03:29:38.294Z,75
2023-04-26T03:30:45.414Z,75
2023-04-26T03:31:52.520Z,75
2023-04-26T03:32:59.692Z,75
2023-04-26T03:34:06.298Z,75
2023-04-26T03:35:13.318Z,75
2023-04-26T03:36:20.435Z,75
2023-04-26T03:37:27.544Z,75
2023-04-26T03:38:34.778Z,75
2023-04-26T03:39:41.156Z,75
2023-04-26T03:40:48.332Z,75
2023-04-26T03:41:55.442Z,75
2023-04-26T03:43:02.493Z,75
2023-04-26T03:45:16.272Z,75
2023-04-26T03:46:23.372Z,75
2023-04-26T03:47:30.449Z,75
2023-04-26T03:48:37.634Z,75
2023-04-26T03:49:44.633Z,75
2023-04-26T03:50:51.222Z,75
2023-04-26T03:51:58.373Z,75
2023-04-26T03:53:05.472Z,75
2023-04-26T03:54:12.633Z,75
2023-04-26T03:55:19.691Z,75
2023-04-26T03:56:26.252Z,75
2023-04-26T03:57:33.310Z,75
2023-04-26T03:58:40.453Z,75
2023-04-26T03:59:47.583Z,75
2023-04-26T04:00:54.687Z,75
2023-04-26T04:02:01.274Z,75
2023-04-26T04:03:08.742Z,75
2023-04-26T04:04:15.883Z,75
2023-04-26T04:05:22.592Z,75
2023-04-26T04:06:29.653Z,75
2023-04-26T04:07:36.196Z,75
2023-04-26T04:08:43.320Z,75
2023-04-26T04:09:50.429Z,75
2023-04-26T04:10:57.579Z,75
2023-04-26T04:12:05.817Z,75
2023-04-26T04:13:11.226Z,75
2023-04-26T04:14:18.427Z,75
2023-04-26T04:15:25.510Z,75
2023-04-26T04:16:32.583Z,75
2023-04-26T04:17:39.696Z,75
2023-04-26T04:18:46.497Z,75
2023-04-26T04:19:53.356Z,75
2023-04-26T04:21:00.473Z,75
2023-04-26T04:22:07.556Z,75
2023-04-26T04:23:14.685Z,75
2023-04-26T04:24:21.332Z,75
2023-04-26T04:25:28.408Z,75
2023-04-26T04:26:35.468Z,75
2023-04-26T04:27:42.691Z,75
2023-04-26T04:28:50.050Z,75
2023-04-26T04:29:56.375Z,75
2023-04-26T04:31:03.356Z,75
2023-04-26T04:32:10.474Z,75
2023-04-26T04:33:17.596Z,75
2023-04-26T04:34:24.697Z,75
2023-04-26T04:35:31.237Z,75
2023-04-26T04:36:38.392Z,75
2023-04-26T04:37:45.500Z,75
2023-04-26T04:38:52.959Z,75
2023-04-26T04:39:59.758Z,75
2023-04-26T04:41:06.299Z,75
2023-04-26T04:42:13.368Z,75
2023-04-26T04:43:20.484Z,75
2023-04-26T04:44:27.680Z,75
2023-04-26T04:45:34.668Z,75
2023-04-26T04:46:41.308Z,75
2023-04-26T04:48:55.566Z,75
2023-04-26T04:50:02.576Z,75
2023-04-26T04:51:09.689Z,75
2023-04-26T04:52:18.802Z,75
2023-04-26T04:53:23.424Z,75
2023-04-26T04:54:30.552Z,75
2023-04-26T04:55:37.618Z,75
2023-04-26T04:56:44.678Z,75
2023-04-26T04:57:51.291Z,75
2023-04-26T04:58:58.438Z,75
2023-04-26T05:00:05.542Z,75
2023-04-26T05:01:12.657Z,75
2023-04-26T05:02:19.929Z,75
2023-04-26T05:03:26.455Z,75
2023-04-26T05:04:33.742Z,75
2023-04-26T05:05:40.503Z,75
2023-04-26T05:06:47.683Z,75
2023-04-26T05:07:54.762Z,75
2023-04-26T05:09:01.462Z,75
2023-04-26T05:10:08.492Z,75
2023-04-26T05:11:15.516Z,75
2023-04-26T05:12:22.624Z,75
2023-04-26T05:13:29.259Z,75
2023-04-26T05:14:36.325Z,75
2023-04-26T05:15:43.405Z,75
2023-04-26T05:16:50.594Z,75
2023-04-26T05:17:57.748Z,75
2023-04-26T05:19:04.766Z,75
2023-04-26T05:20:11.308Z,75
2023-04-26T05:21:18.507Z,75
2023-04-26T05:22:25.542Z,75
2023-04-26T05:23:32.636Z,75
2023-04-26T05:24:39.790Z,75
2023-04-26T05:25:46.347Z,75
2023-04-26T05:26:53.413Z,76
2023-04-26T05:28:00.565Z,76
2023-04-26T05:29:07.858Z,75
2023-04-26T05:30:14.203Z,76
2023-04-26T05:31:21.401Z,76
2023-04-26T05:32:28.455Z,76
2023-04-26T05:33:35.595Z,76
2023-04-26T05:34:42.756Z,76
2023-04-26T05:35:49.286Z,76
2023-04-26T05:36:56.384Z,76
2023-04-26T05:38:03.495Z,76
2023-04-26T05:39:10.529Z,76
2023-04-26T05:40:17.720Z,76
2023-04-26T05:41:24.211Z,76
2023-04-26T05:42:31.373Z,76
2023-04-26T05:43:38.465Z,76
2023-04-26T05:44:45.655Z,76
2023-04-26T05:45:52.715Z,76
2023-04-26T05:46:59.280Z,76
2023-04-26T05:48:06.463Z,75
2023-04-26T05:49:13.538Z,75
2023-04-26T05:50:20.540Z,75
2023-04-26T05:52:34.272Z,75
2023-04-26T05:53:41.357Z,75
2023-04-26T05:54:48.561Z,75
2023-04-26T05:55:55.595Z,75
2023-04-26T05:57:02.750Z,75
2023-04-26T05:58:09.257Z,75
2023-04-26T05:59:16.511Z,76
2023-04-26T06:00:23.536Z,76
2023-04-26T06:01:30.591Z,76
2023-04-26T06:02:37.972Z,76
2023-04-26T06:03:44.618Z,76
2023-04-26T06:04:51.653Z,76
2023-04-26T06:05:58.641Z,76
2023-04-26T06:07:05.634Z,76
2023-04-26T06:08:12.718Z,76
2023-04-26T06:09:20.226Z,76
2023-04-26T06:10:26.443Z,76
2023-04-26T06:11:33.491Z,76
2023-04-26T06:12:40.640Z,76
2023-04-26T06:13:47.820Z,76
2023-04-26T06:14:54.308Z,76
2023-04-26T06:17:08.578Z,76
2023-04-26T06:18:15.732Z,76
2023-04-26T06:19:22.829Z,76
2023-04-26T06:20:29.580Z,76
2023-04-26T06:21:36.455Z,76
2023-04-26T06:22:43.543Z,76
2023-04-26T06:23:51.089Z,76
2023-04-26T06:24:57.723Z,76
2023-04-26T06:26:04.331Z,76
2023-04-26T06:27:11.423Z,76
2023-04-26T06:28:18.526Z,76
2023-04-26T06:29:25.726Z,76
2023-04-26T06:30:32.705Z,76
2023-04-26T06:31:39.409Z,76
2023-04-26T06:32:46.469Z,76
2023-04-26T06:33:53.972Z,76
2023-04-26T06:35:00.687Z,76
2023-04-26T06:36:07.798Z,77
2023-04-26T06:37:14.361Z,77
2023-04-26T06:38:21.474Z,77
2023-04-26T06:39:28.682Z,77
2023-04-26T06:40:35.642Z,77
2023-04-26T06:41:42.712Z,77
2023-04-26T06:42:49.973Z,78
2023-04-26T06:43:56.551Z,78
2023-04-26T06:45:03.571Z,79
2023-04-26T06:46:10.625Z,80
2023-04-26T06:47:17.766Z,80
2023-04-26T06:48:24.411Z,81
2023-04-26T06:49:31.522Z,80
2023-04-26T06:50:38.591Z,80
2023-04-26T06:51:45.677Z,80
2023-04-26T06:52:52.733Z,80
2023-04-26T06:53:59.467Z,81
2023-04-26T06:56:13.672Z,81
2023-04-26T06:57:20.658Z,81
2023-04-26T06:58:27.814Z,81
2023-04-26T06:59:34.443Z,80
2023-04-26T07:00:41.485Z,80
2023-04-26T07:01:48.637Z,80
2023-04-26T07:02:55.975Z,79
2023-04-26T07:04:03.292Z,79
2023-04-26T07:05:09.569Z,79
2023-04-26T07:06:16.549Z,79
2023-04-26T07:07:23.695Z,79
2023-04-26T07:08:30.808Z,79
2023-04-26T07:09:37.872Z,78
2023-04-26T07:10:44.389Z,78
2023-04-26T07:11:51.489Z,78
2023-04-26T07:12:58.599Z,78
2023-04-26T07:14:05.826Z,78
2023-04-26T07:15:12.832Z,77
2023-04-26T07:16:19.481Z,77
2023-04-26T07:17:26.483Z,77
2023-04-26T07:18:33.593Z,76
2023-04-26T07:19:40.910Z,76
2023-04-26T07:20:47.325Z,76
2023-04-26T07:21:54.406Z,76
2023-04-26T07:23:01.539Z,75
2023-04-26T07:24:08.699Z,75
2023-04-26T07:25:15.762Z,74
2023-04-26T07:26:22.303Z,74
2023-04-26T07:27:29.358Z,73
2023-04-26T07:28:36.503Z,72
2023-04-26T07:29:43.666Z,72
2023-04-26T07:31:57.377Z,72
2023-04-26T07:33:04.618Z,71
2023-04-26T07:34:11.616Z,71
2023-04-26T07:35:18.676Z,71
2023-04-26T07:36:25.715Z,70
2023-04-26T07:37:32.291Z,70
2023-04-26T07:38:39.445Z,70
2023-04-26T07:39:46.589Z,70
2023-04-26T07:40:53.646Z,70
2023-04-26T07:42:00.757Z,70
2023-04-26T07:43:07.368Z,69
2023-04-26T07:45:21.672Z,69
2023-04-26T07:46:28.702Z,69
2023-04-26T07:47:35.802Z,69
2023-04-26T07:48:42.322Z,69
2023-04-26T07:49:49.520Z,69
2023-04-26T07:50:56.552Z,69
2023-04-26T07:52:05.834Z,69
2023-04-26T07:53:10.771Z,69
2023-04-26T07:54:17.408Z,69
2023-04-26T07:55:24.453Z,69
2023-04-26T07:56:31.549Z,69
2023-04-26T07:57:38.652Z,68
2023-04-26T07:59:52.398Z,68
2023-04-26T08:00:59.431Z,68
2023-04-26T08:02:06.631Z,68
2023-04-26T08:03:13.836Z,68
2023-04-26T08:04:21.009Z,67
2023-04-26T08:05:27.799Z,67
2023-04-26T08:06:34.477Z,67
2023-04-26T08:07:41.594Z,67
2023-04-26T08:08:48.743Z,67
2023-04-26T08:09:55.897Z,67
2023-04-26T08:11:02.426Z,67
2023-04-26T08:12:09.560Z,67
2023-04-26T08:13:16.588Z,67
2023-04-26T08:14:23.785Z,66
2023-04-26T08:15:30.752Z,66
2023-04-26T08:16:37.425Z,66
2023-04-26T08:17:44.569Z,65
2023-04-26T08:18:51.666Z,65
2023-04-26T08:19:58.681Z,65
2023-04-26T08:21:06.303Z,65
2023-04-26T08:22:12.339Z,65
2023-04-26T08:23:19.549Z,65
2023-04-26T08:24:26.575Z,65
2023-04-26T08:25:33.678Z,65
2023-04-26T08:26:40.777Z,65
2023-04-26T08:27:47.374Z,65
2023-04-26T08:28:54.574Z,65
2023-04-26T08:30:01.623Z,65
2023-04-26T08:31:08.732Z,65
2023-04-26T08:32:15.282Z,64
2023-04-26T08:33:22.401Z,64
2023-04-26T08:34:29.604Z,64
2023-04-26T08:35:36.580Z,64
2023-04-26T08:36:43.671Z,64
2023-04-26T08:37:50.282Z,64
2023-04-26T08:38:57.441Z,64
2023-04-26T08:40:04.523Z,64
2023-04-26T08:41:11.604Z,64
2023-04-26T08:42:18.731Z,64
2023-04-26T08:43:25.350Z,64
2023-04-26T08:44:32.486Z,64
2023-04-26T08:45:39.554Z,64
2023-04-26T08:46:46.723Z,64
2023-04-26T08:47:53.702Z,64
2023-04-26T08:49:00.401Z,64
2023-04-26T08:50:07.477Z,64
2023-04-26T08:51:14.490Z,63
2023-04-26T08:52:21.584Z,63
2023-04-26T08:53:28.745Z,63
2023-04-26T08:54:35.411Z,63
2023-04-26T08:55:42.420Z,63
2023-04-26T08:56:49.576Z,63
2023-04-26T08:57:56.653Z,63
2023-04-26T08:59:03.697Z,63
2023-04-26T09:00:10.284Z,63
2023-04-26T09:01:17.540Z,62
2023-04-26T09:03:31.836Z,61
2023-04-26T09:04:38.991Z,61
2023-04-26T09:05:46.042Z,61
2023-04-26T09:06:52.396Z,60
2023-04-26T09:07:59.568Z,61
2023-04-26T09:09:06.752Z,60
2023-04-26T09:10:13.742Z,60
2023-04-26T09:11:20.357Z,61
2023-04-26T09:13:34.592Z,61
2023-04-26T09:14:41.681Z,61
2023-04-26T09:15:48.861Z,61
2023-04-26T09:16:55.377Z,61
2023-04-26T09:18:02.544Z,61
2023-04-26T09:19:09.694Z,61
2023-04-26T09:20:16.775Z,61
2023-04-26T09:21:23.789Z,61
2023-04-26T09:22:30.324Z,61
2023-04-26T09:23:37.483Z,60
2023-04-26T09:24:44.950Z,60
2023-04-26T09:25:51.628Z,59
2023-04-26T09:26:58.806Z,59
2023-04-26T09:28:05.351Z,59
2023-04-26T09:29:12.572Z,59
2023-04-26T09:30:19.615Z,58
2023-04-26T09:31:26.770Z,58
2023-04-26T09:32:33.846Z,58
2023-04-26T09:33:40.351Z,58
2023-04-26T09:34:47.515Z,59
2023-04-26T09:35:54.528Z,59
2023-04-26T09:37:01.683Z,59
2023-04-26T09:38:12.571Z,59
2023-04-26T09:39:15.410Z,59
2023-04-26T09:40:22.485Z,59
2023-04-26T09:41:29.613Z,59
2023-04-26T09:42:36.724Z,59
2023-04-26T09:43:43.820Z,59
2023-04-26T09:44:50.412Z,58
2023-04-26T09:45:57.614Z,58
2023-04-26T09:47:04.737Z,58
2023-04-26T09:48:11.694Z,58
2023-04-26T09:49:19.423Z,58
2023-04-26T09:50:25.380Z,58
2023-04-26T09:51:32.507Z,58
2023-04-26T09:52:39.587Z,58
2023-04-26T09:53:46.732Z,58
2023-04-26T09:54:53.854Z,58
2023-04-26T09:56:00.412Z,58
2023-04-26T09:57:07.588Z,58
2023-04-26T09:58:14.662Z,58
2023-04-26T09:59:21.805Z,58
2023-04-26T10:00:28.264Z,58
2023-04-26T10:01:35.456Z,58
2023-04-26T10:02:42.547Z,58
2023-04-26T10:03:49.763Z,58
2023-04-26T10:04:57.077Z,58
2023-04-26T10:07:10.397Z,59
2023-04-26T10:08:17.551Z,59
2023-04-26T10:09:24.690Z,59
2023-04-26T10:10:31.737Z,59
2023-04-26T10:11:38.933Z,59
2023-04-26T10:12:45.422Z,59
2023-04-26T10:13:52.550Z,59
2023-04-26T10:15:00.231Z,59
2023-04-26T10:16:06.936Z,59
2023-04-26T10:17:13.875Z,59
2023-04-26T10:18:20.430Z,59
2023-04-26T10:19:27.671Z,59
2023-04-26T10:20:34.663Z,59
2023-04-26T10:21:41.762Z,59
2023-04-26T10:22:48.493Z,59
2023-04-26T10:23:55.472Z,58
2023-04-26T10:25:02.660Z,58
2023-04-26T10:26:09.671Z,58
2023-04-26T10:27:16.784Z,58
2023-04-26T10:28:23.303Z,58
2023-04-26T10:29:30.460Z,57
2023-04-26T10:30:37.605Z,57
2023-04-26T10:31:44.682Z,57
2023-04-26T10:32:51.812Z,57
2023-04-26T10:33:58.372Z,57
2023-04-26T10:35:05.611Z,57
2023-04-26T10:36:12.581Z,56
2023-04-26T10:37:19.657Z,57
2023-04-26T10:38:26.758Z,57
2023-04-26T10:39:33.318Z,57
2023-04-26T10:41:47.601Z,57
2023-04-26T10:42:54.628Z,57
2023-04-26T10:44:01.791Z,56
2023-04-26T10:45:08.451Z,56
2023-04-26T10:46:16.137Z,56
2023-04-26T10:47:22.725Z,56
2023-04-26T10:48:29.639Z,56
2023-04-26T10:49:36.860Z,56
2023-04-26T10:50:43.327Z,56
2023-04-26T10:51:50.453Z,55
2023-04-26T10:52:57.612Z,55
2023-04-26T10:54:04.733Z,56
2023-04-26T10:55:11.843Z,56
2023-04-26T10:56:18.403Z,56
2023-04-26T10:57:25.524Z,55
2023-04-26T10:58:32.601Z,55
2023-04-26T10:59:51.185Z,55
2023-04-26T11:00:46.892Z,55
2023-04-26T11:01:53.476Z,55
2023-04-26T11:03:00.518Z,55
2023-04-26T11:04:07.777Z,55
2023-04-26T11:05:14.732Z,55
2023-04-26T11:06:21.792Z,55
2023-04-26T11:07:28.406Z,55
2023-04-26T11:08:35.523Z,55
2023-04-26T11:10:49.774Z,56
2023-04-26T11:11:56.878Z,55
2023-04-26T11:13:03.380Z,56
2023-04-26T11:14:10.592Z,56
2023-04-26T11:15:17.616Z,56
2023-04-26T11:16:24.822Z,56
2023-04-26T11:17:32.370Z,56
2023-04-26T11:18:38.389Z,56
2023-04-26T11:19:45.533Z,56
2023-04-26T11:20:52.577Z,56
2023-04-26T11:21:59.833Z,56
2023-04-26T11:23:06.311Z,56
2023-04-26T11:24:13.491Z,56
2023-04-26T11:25:20.514Z,56
2023-04-26T11:26:27.620Z,56
2023-04-26T11:27:34.772Z,56
2023-04-26T11:28:41.813Z,57
2023-04-26T11:29:48.455Z,57
2023-04-26T11:30:55.574Z,57
2023-04-26T11:32:05.711Z,57
2023-04-26T11:33:09.812Z,57
2023-04-26T11:34:16.442Z,57
2023-04-26T11:35:23.399Z,57
2023-04-26T11:36:30.542Z,57
2023-04-26T11:37:37.691Z,57
2023-04-26T11:38:44.794Z,56
2023-04-26T11:39:51.348Z,56
2023-04-26T11:40:58.543Z,57
2023-04-26T11:42:05.894Z,57
2023-04-26T11:43:12.709Z,57
2023-04-26T11:44:19.870Z,57
2023-04-26T11:45:26.387Z,57
2023-04-26T11:46:33.488Z,57
2023-04-26T11:47:40.703Z,58
2023-04-26T11:48:47.692Z,58
2023-04-26T11:49:54.818Z,58
2023-04-26T11:51:01.305Z,58
2023-04-26T11:52:08.515Z,58
2023-04-26T11:53:15.603Z,58
2023-04-26T11:54:22.753Z,58
2023-04-26T11:55:29.796Z,58
2023-04-26T11:56:36.367Z,58
2023-04-26T11:57:43.426Z,58
2023-04-26T11:58:51.105Z,58
2023-04-26T11:59:57.685Z,58
2023-04-26T12:01:04.784Z,58
2023-04-26T12:02:11.406Z,58
2023-04-26T12:03:18.785Z,58
2023-04-26T12:04:27.587Z,58
2023-04-26T12:05:32.821Z,58
2023-04-26T12:06:39.784Z,58
2023-04-26T12:07:46.360Z,59
2023-04-26T12:10:01.141Z,59
2023-04-26T12:11:07.676Z,59
2023-04-26T12:12:14.814Z,59
2023-04-26T12:14:28.551Z,58
2023-04-26T12:15:35.616Z,64
2023-04-26T12:16:42.687Z,58
2023-04-26T12:17:49.875Z,58
2023-04-26T12:18:56.414Z,57
2023-04-26T12:20:03.568Z,57
2023-04-26T12:21:10.604Z,57
2023-04-26T12:22:17.749Z,57
2023-04-26T12:23:24.833Z,57
2023-04-26T12:24:31.420Z,57
2023-04-26T12:25:38.557Z,57
2023-04-26T12:26:45.652Z,57
2023-04-26T12:27:52.674Z,57
2023-04-26T12:28:59.831Z,57
2023-04-26T12:30:06.540Z,57
2023-04-26T12:31:13.557Z,57
2023-04-26T12:32:22.556Z,57
2023-04-26T12:33:27.793Z,57
2023-04-26T12:34:34.318Z,57
2023-04-26T12:35:41.412Z,56
2023-04-26T12:36:48.551Z,56
2023-04-26T12:37:55.653Z,56
2023-04-26T12:39:02.711Z,56
2023-04-26T12:40:09.972Z,56
2023-04-26T12:41:16.408Z,56
2023-04-26T12:42:23.489Z,56
2023-04-26T12:43:30.646Z,56
2023-04-26T12:44:37.746Z,56
2023-04-26T12:45:44.938Z,56
2023-04-26T12:46:51.431Z,56
2023-04-26T12:47:58.682Z,56
2023-04-26T12:49:05.662Z,56
2023-04-26T12:50:12.794Z,55
2023-04-26T12:51:19.356Z,55
2023-04-26T12:52:26.481Z,55
2023-04-26T12:53:33.540Z,55
2023-04-26T12:54:40.653Z,55
2023-04-26T12:55:47.748Z,55
2023-04-26T12:56:54.341Z,55
2023-04-26T12:58:01.430Z,55
2023-04-26T12:59:08.574Z,55
2023-04-26T13:00:15.739Z,55
2023-04-26T13:01:22.784Z,55
2023-04-26T13:02:29.563Z,55
2023-04-26T13:03:36.705Z,55
2023-04-26T13:04:43.913Z,55
2023-04-26T13:05:50.660Z,54
2023-04-26T13:06:57.773Z,54
2023-04-26T13:08:04.394Z,54
2023-04-26T13:09:11.427Z,54
2023-04-26T13:10:18.642Z,54
2023-04-26T13:11:25.663Z,54
2023-04-26T13:12:32.793Z,54
2023-04-26T13:13:43.679Z,54
2023-04-26T13:14:46.594Z,55
2023-04-26T13:15:53.689Z,55
2023-04-26T13:18:07.926Z,55
2023-04-26T13:19:14.404Z,55
2023-04-26T13:20:22.323Z,54
2023-04-26T13:21:28.593Z,54
2023-04-26T13:22:35.708Z,54
2023-04-26T13:23:42.788Z,54
2023-04-26T13:24:49.383Z,54
2023-04-26T13:25:56.504Z,54
2023-04-26T13:27:03.549Z,54
2023-04-26T13:28:10.682Z,54
2023-04-26T13:29:17.794Z,54
2023-04-26T13:30:24.431Z,54
2023-04-26T13:31:31.536Z,54
2023-04-26T13:32:38.653Z,54
2023-04-26T13:33:45.704Z,54
2023-04-26T13:34:52.847Z,54
2023-04-26T13:35:59.467Z,54
2023-04-26T13:38:13.880Z,54
2023-04-26T13:39:20.671Z,53
2023-04-26T13:40:27.872Z,53
2023-04-26T13:41:34.413Z,53
2023-04-26T13:42:41.475Z,53
2023-04-26T13:43:48.598Z,54
2023-04-26T13:44:55.731Z,54
2023-04-26T13:46:02.313Z,53
2023-04-26T13:47:09.434Z,53
2023-04-26T13:48:16.994Z,53
2023-04-26T13:49:23.672Z,53
2023-04-26T13:50:30.723Z,53
2023-04-26T13:51:37.273Z,53
2023-04-26T13:52:44.412Z,53
2023-04-26T13:53:51.556Z,53
2023-04-26T13:54:58.606Z,53
2023-04-26T13:56:05.768Z,53
2023-04-26T13:57:12.330Z,53
2023-04-26T13:58:19.427Z,53
2023-04-26T13:59:26.580Z,53
2023-04-26T14:00:33.623Z,53
2023-04-26T14:01:40.834Z,53
2023-04-26T14:02:47.512Z,53
2023-04-26T14:03:56.123Z,53
2023-04-26T14:05:01.677Z,53
2023-04-26T14:06:08.646Z,52
2023-04-26T14:07:15.733Z,53
2023-04-26T14:08:22.352Z,53
2023-04-26T14:09:29.524Z,52
2023-04-26T14:10:36.599Z,52
2023-04-26T14:11:44.724Z,52
2023-04-26T14:12:50.750Z,53
2023-04-26T14:13:57.899Z,53
2023-04-26T14:15:04.491Z,53
2023-04-26T14:16:11.593Z,53
2023-04-26T14:17:18.710Z,53
2023-04-26T14:18:25.781Z,52
2023-04-26T14:19:32.453Z,52
2023-04-26T14:21:46.606Z,53
2023-04-26T14:22:53.666Z,52
2023-04-26T14:24:00.784Z,52
2023-04-26T14:25:07.378Z,52
2023-04-26T14:26:14.469Z,52
2023-04-26T14:27:21.580Z,52
2023-04-26T14:28:28.705Z,52
2023-04-26T14:29:35.907Z,52
2023-04-26T14:30:42.363Z,51
2023-04-26T14:31:49.571Z,51
2023-04-26T14:32:56.607Z,51
2023-04-26T14:34:03.686Z,51
2023-04-26T14:35:10.765Z,52
2023-04-26T14:36:17.416Z,52
2023-04-26T14:37:24.465Z,52
2023-04-26T14:38:31.561Z,51
2023-04-26T14:39:38.655Z,51
2023-04-26T14:40:45.809Z,51
2023-04-26T14:41:52.381Z,51
2023-04-26T14:42:59.490Z,51
2023-04-26T14:44:06.634Z,51
2023-04-26T14:45:13.791Z,51
2023-04-26T14:46:20.847Z,51
2023-04-26T14:47:27.434Z,51
2023-04-26T14:48:34.492Z,51
2023-04-26T14:49:41.610Z,51
2023-04-26T14:50:48.672Z,51
2023-04-26T14:51:55.805Z,51
2023-04-26T14:53:02.390Z,51
2023-04-26T14:54:09.524Z,51
2023-04-26T14:55:16.733Z,51
2023-04-26T14:56:23.668Z,51
2023-04-26T14:57:30.313Z,50
2023-04-26T14:58:37.435Z,50
2023-04-26T14:59:44.512Z,50
2023-04-26T15:00:51.563Z,50
2023-04-26T15:01:58.895Z,50
2023-04-26T15:03:05.425Z,50
2023-04-26T15:04:12.553Z,50
2023-04-26T15:06:26.715Z,50
2023-04-26T15:07:33.736Z,50
2023-04-26T15:08:40.334Z,50
2023-04-26T15:09:47.466Z,50
2023-04-26T15:10:54.479Z,49
2023-04-26T15:12:01.633Z,49
2023-04-26T15:13:08.745Z,50
2023-04-26T15:14:15.306Z,49
2023-04-26T15:15:22.475Z,49
2023-04-26T15:16:29.578Z,49
2023-04-26T15:17:36.669Z,49
2023-04-26T15:18:43.754Z,49
2023-04-26T15:19:50.324Z,49
2023-04-26T15:20:57.474Z,49
2023-04-26T15:22:06.024Z,49
2023-04-26T15:23:11.614Z,49
2023-04-26T15:25:25.386Z,49
2023-04-26T15:26:32.438Z,49
2023-04-26T15:27:39.646Z,49
2023-04-26T15:28:46.694Z,49
2023-04-26T15:29:53.756Z,49
2023-04-26T15:31:00.424Z,48
2023-04-26T15:32:07.470Z,49
2023-04-26T15:33:14.576Z,49
2023-04-26T15:34:21.626Z,49
2023-04-26T15:35:28.865Z,48
2023-04-26T15:36:35.397Z,48
2023-04-26T15:37:42.402Z,48
2023-04-26T15:38:49.581Z,48
2023-04-26T15:39:56.649Z,48
2023-04-26T15:41:03.750Z,48
2023-04-26T15:42:10.883Z,48
2023-04-26T15:43:17.656Z,48
2023-04-26T15:44:24.565Z,48
2023-04-26T15:45:31.784Z,48
2023-04-26T15:46:38.814Z,48
2023-04-26T15:47:45.367Z,48
2023-04-26T15:48:52.496Z,48
2023-04-26T15:49:59.664Z,48
2023-04-26T15:51:06.754Z,48
2023-04-26T15:52:13.774Z,48
2023-04-26T15:53:20.665Z,48
2023-04-26T15:54:27.505Z,48
2023-04-26T15:55:34.574Z,48
2023-04-26T15:56:41.660Z,48
2023-04-26T15:57:48.830Z,48
2023-04-26T15:58:55.384Z,48
2023-04-26T16:00:02.652Z,48
2023-04-26T16:01:09.693Z,48
2023-04-26T16:02:16.802Z,48
2023-04-26T16:03:23.937Z,48
2023-04-26T16:04:30.638Z,48
2023-04-26T16:05:37.481Z,48
2023-04-26T16:06:44.590Z,48
2023-04-26T16:07:51.674Z,48
2023-04-26T16:08:58.317Z,48
2023-04-26T16:10:05.507Z,48
2023-04-26T16:11:12.511Z,48
2023-04-26T16:12:19.680Z,47
2023-04-26T16:13:26.731Z,47
2023-04-26T16:14:33.815Z,47
2023-04-26T16:15:40.457Z,47
2023-04-26T16:16:47.535Z,47
2023-04-26T16:17:54.700Z,47
2023-04-26T16:19:01.681Z,47
2023-04-26T16:20:08.396Z,47
2023-04-26T16:21:15.444Z,47
2023-04-26T16:22:22.513Z,47
2023-04-26T16:23:29.659Z,47